LHBPLHKE

Guest
Details From LHBP - Ferihegy (Budapest)
To LHKE - KECSKEMET
Flight Number -
Tags decoded
Created
Modified
Stats Distance 37 nm / 68 km
Max Altitude 0 ft / 0 m
Waypoints 2
Social Downloads 4
Likes 0
Share VATSIM

Download

Looking for another format? Having issues loading an existing format? Contact us
Advertisement - Login to hide

Notes

Requested: LHBP LHKE

Route

LHBP LHKE

ID Type Via Altitude Latitude Longitude Leg Dist Tot Dist Heading (true) Name
O LHBP APT - 0 ft / 0 m 47.43529˚ 19.26579˚ - 0 nm - Ferihegy (Budapest)
O LHKE APT - 0 ft / 0 m 46.91750˚ 19.74922˚ 36 nm 36 nm 147° / 148° KECSKEMET

Altitude Profile

Advertisement - Login to hide

LHBP

Details ICAO LHBP (BUD)
Name Ferihegy (Budapest)
Region Hungary
Timezone Europe/Budapest (UTC+2.0)
Stats Elevation 495 ft / 151 m (AMSL)
Location 47.435292° 19.265792°
Runways 3
Magnetic Variation 4.814° E

METAR

LHBP 221830Z 09007KT CAVOK 21/15 Q1016 NOSIG

Decode

TAF

TAF TAF LHBP 221715Z 2218/2318 10006KT 9999 SCT040 BKN100 TEMPO 2218/2303 SHRA -TSRA FEW030CB SCT035 BKN060 BECMG 2306/2309 12011KT SCT043 TEMPO 2310/2318 SCT040 BKN060 BECMG 2316/2318 08006KT

Decode

Departure Runways

ID Width Length Bearing (true) Bearing (mag) Surface Threshold Offset Overrun Length
13 250 ft / 76 m 6,000 ft / 1,829 m 132.54° 127.73° Unknown 0 ft / 0 m 0 ft / 0 m
13L 196 ft / 60 m 12,487 ft / 3,806 m 132.54° 127.73° Asphalt 0 ft / 0 m 200 ft / 61 m
13R 196 ft / 60 m 10,145 ft / 3,092 m 132.49° 127.68° Asphalt 0 ft / 0 m 197 ft / 60 m
31 250 ft / 76 m 6,000 ft / 1,829 m 312.55° 307.74° Unknown 0 ft / 0 m 0 ft / 0 m
31L 196 ft / 60 m 10,145 ft / 3,092 m 312.51° 307.70° Asphalt 0 ft / 0 m 197 ft / 60 m
31R 196 ft / 60 m 12,487 ft / 3,806 m 312.56° 307.75° Asphalt 0 ft / 0 m 197 ft / 60 m

LHKE

Details ICAO LHKE
Name KECSKEMET
Region Hungary
Timezone Europe/Budapest (UTC+2.0)
Stats Elevation 376 ft / 115 m (AMSL)
Location 46.917500° 19.749222°
Runways 1
Magnetic Variation 4.852° E

METAR

LHKE 221815Z 15006KT 120V180 CAVOK 21/14 Q1017 NOSIG RMK BLU

Decode

TAF

Not found

Destination Runways

ID Width Length Bearing (true) Bearing (mag) Surface Threshold Offset Overrun Length
12 197 ft / 60 m 8,178 ft / 2,493 m 123.04° 118.19° Concrete 0 ft / 0 m 200 ft / 61 m
30 197 ft / 60 m 8,178 ft / 2,493 m 303.06° 298.21° Concrete 0 ft / 0 m 200 ft / 61 m

Popular Alternatives